Check out our new PWSWeather beta!
PWSweather.com
Personal Weather Stations
Station Observations

PoschiavoCH

Lat: 46.31962499999999, Lon: 10.066551000000004

Elevation: 3517

Station Type: WH 1080

http://www.meteoposchiavo.com

High Low Average
Temperature 47.0°F8.3°C 43.0°F6.1°C 44.4°F6.9°C
Dew Point 44.9°F7.2°C 42.2°F5.7°C 43.5°F6.4°C
Winds 1.2 mph 1.9 kmh Calm Calm Calm NWCalm NW
Wind Gusts 2.3 mph3.7 kmh -- 1.0 mph1.6 kmh
Humidity 99% 92% 97%
Pressure 26.55 in899.1 mb 26.36 in892.7 mb -
Precipitation 0.02 in0.5 mm - -
Hour Temp Dew Point Humidity Winds Wind Gusts Pressure Precip Precip Rate Daily Precip Total
12:00 AM 44.0°F6.7°C 43.7°F6.5°C 99% Calm Calm 2.3 mph3.7 kmh 26.55 in899.1 mb - 0.00 in0.0 mm 0.00 in0.0 mm
12:10 AM 44.0°F6.7°C 43.7°F6.5°C 99% Calm Calm 2.3 mph3.7 kmh 26.55 in899.1 mb - 0.00 in0.0 mm 0.00 in0.0 mm
12:15 AM 44.0°F6.7°C 43.7°F6.5°C 99% Calm Calm 2.3 mph3.7 kmh 26.55 in899.1 mb - 0.00 in0.0 mm 0.00 in0.0 mm
12:20 AM 44.0°F6.7°C 43.7°F6.5°C 99% Calm Calm 2.3 mph3.7 kmh 26.55 in899.1 mb - 0.00 in0.0 mm 0.00 in0.0 mm
12:25 AM 44.0°F6.7°C 43.7°F6.5°C 99% Calm Calm 2.3 mph3.7 kmh 26.55 in899.1 mb - 0.00 in0.0 mm 0.00 in0.0 mm
12:30 AM 44.0°F6.7°C 43.7°F6.5°C 99% Calm Calm 2.3 mph3.7 kmh 26.55 in899.1 mb - 0.00 in0.0 mm 0.00 in0.0 mm
12:35 AM 44.0°F6.7°C 43.7°F6.5°C 99% Calm Calm 2.3 mph3.7 kmh 26.55 in899.1 mb - 0.00 in0.0 mm 0.00 in0.0 mm
12:40 AM 44.0°F6.7°C 43.7°F6.5°C 99% Calm Calm 2.3 mph3.7 kmh 26.55 in899.1 mb - 0.00 in0.0 mm 0.00 in0.0 mm
12:45 AM 44.0°F6.7°C 43.7°F6.5°C 99% Calm Calm 2.3 mph3.7 kmh 26.55 in899.1 mb - 0.00 in0.0 mm 0.00 in0.0 mm
12:50 AM 44.0°F6.7°C 43.7°F6.5°C 99% Calm Calm 2.3 mph3.7 kmh 26.55 in899.1 mb - 0.00 in0.0 mm 0.00 in0.0 mm
12:55 AM 44.0°F6.7°C 43.7°F6.5°C 99% Calm Calm 2.3 mph3.7 kmh 26.55 in899.1 mb - 0.00 in0.0 mm 0.00 in0.0 mm
01:00 AM 44.0°F6.7°C 43.7°F6.5°C 99% Calm Calm 2.3 mph3.7 kmh 26.55 in899.1 mb - 0.00 in0.0 mm 0.00 in0.0 mm
01:10 AM 44.0°F6.7°C 43.7°F6.5°C 99% Calm Calm 1.2 mph1.9 kmh 26.54 in898.7 mb - 0.00 in0.0 mm 0.00 in0.0 mm
01:15 AM 44.0°F6.7°C 43.7°F6.5°C 99% Calm Calm 1.2 mph1.9 kmh 26.54 in898.7 mb - 0.00 in0.0 mm 0.00 in0.0 mm
01:20 AM 44.0°F6.7°C 43.7°F6.5°C 99% Calm Calm -- 26.53 in898.4 mb - 0.00 in0.0 mm 0.00 in0.0 mm
01:25 AM 44.0°F6.7°C 43.7°F6.5°C 99% Calm Calm -- 26.54 in898.7 mb - 0.00 in0.0 mm 0.00 in0.0 mm
01:30 AM 44.0°F6.7°C 43.7°F6.5°C 99% 1.2 mph NW1.9 kmh NW 1.2 mph1.9 kmh 26.54 in898.7 mb - 0.00 in0.0 mm 0.00 in0.0 mm
01:35 AM 44.0°F6.7°C 43.7°F6.5°C 99% Calm Calm -- 26.54 in898.7 mb - 0.00 in0.0 mm 0.00 in0.0 mm
01:40 AM 44.0°F6.7°C 43.7°F6.5°C 99% Calm Calm -- 26.53 in898.4 mb - 0.00 in0.0 mm 0.00 in0.0 mm
01:45 AM 44.0°F6.7°C 43.7°F6.5°C 99% Calm Calm -- 26.53 in898.4 mb - 0.00 in0.0 mm 0.00 in0.0 mm
01:50 AM 44.0°F6.7°C 43.7°F6.5°C 99% Calm Calm -- 26.54 in898.7 mb - 0.00 in0.0 mm 0.00 in0.0 mm
01:55 AM 44.0°F6.7°C 43.7°F6.5°C 99% Calm Calm -- 26.53 in898.4 mb - 0.00 in0.0 mm 0.00 in0.0 mm
02:00 AM 44.0°F6.7°C 43.7°F6.5°C 99% Calm Calm 1.2 mph1.9 kmh 26.54 in898.7 mb - 0.00 in0.0 mm 0.00 in0.0 mm
02:10 AM 44.0°F6.7°C 43.7°F6.5°C 99% Calm Calm 1.2 mph1.9 kmh 26.53 in898.4 mb - 0.00 in0.0 mm 0.00 in0.0 mm
02:15 AM 44.0°F6.7°C 43.7°F6.5°C 99% Calm Calm 1.2 mph1.9 kmh 26.54 in898.7 mb - 0.00 in0.0 mm 0.00 in0.0 mm
02:20 AM 44.0°F6.7°C 43.7°F6.5°C 99% Calm Calm 1.2 mph1.9 kmh 26.54 in898.7 mb - 0.00 in0.0 mm 0.00 in0.0 mm
02:25 AM 44.0°F6.7°C 43.7°F6.5°C 99% Calm Calm 1.2 mph1.9 kmh 26.54 in898.7 mb - 0.00 in0.0 mm 0.00 in0.0 mm
02:30 AM 44.0°F6.7°C 43.7°F6.5°C 99% Calm Calm 1.2 mph1.9 kmh 26.53 in898.4 mb - 0.00 in0.0 mm 0.00 in0.0 mm
02:35 AM 44.0°F6.7°C 43.7°F6.5°C 99% Calm Calm 1.2 mph1.9 kmh 26.54 in898.7 mb - 0.00 in0.0 mm 0.00 in0.0 mm
02:40 AM 44.0°F6.7°C 43.7°F6.5°C 99% 1.2 mph NW1.9 kmh NW 1.2 mph1.9 kmh 26.53 in898.4 mb - 0.00 in0.0 mm 0.00 in0.0 mm
02:45 AM 44.0°F6.7°C 43.7°F6.5°C 99% Calm Calm -- 26.52 in898.1 mb - 0.00 in0.0 mm 0.00 in0.0 mm
02:50 AM 44.0°F6.7°C 43.7°F6.5°C 99% Calm Calm -- 26.52 in898.1 mb - 0.00 in0.0 mm 0.00 in0.0 mm
02:55 AM 44.0°F6.7°C 43.7°F6.5°C 99% Calm Calm -- 26.53 in898.4 mb - 0.00 in0.0 mm 0.00 in0.0 mm
03:00 AM 44.0°F6.7°C 43.7°F6.5°C 99% Calm Calm -- 26.52 in898.1 mb - 0.00 in0.0 mm 0.00 in0.0 mm
03:10 AM 44.0°F6.7°C 43.7°F6.5°C 99% Calm Calm -- 26.52 in898.1 mb - 0.00 in0.0 mm 0.00 in0.0 mm
03:15 AM 44.0°F6.7°C 43.7°F6.5°C 99% Calm Calm -- 26.52 in898.1 mb - 0.00 in0.0 mm 0.00 in0.0 mm
03:20 AM 44.0°F6.7°C 43.7°F6.5°C 99% Calm Calm -- 26.52 in898.1 mb - 0.00 in0.0 mm 0.00 in0.0 mm
03:25 AM 44.0°F6.7°C 43.7°F6.5°C 99% Calm Calm -- 26.51 in897.7 mb - 0.00 in0.0 mm 0.00 in0.0 mm
03:30 AM 44.0°F6.7°C 43.7°F6.5°C 99% Calm Calm -- 26.52 in898.1 mb - 0.00 in0.0 mm 0.00 in0.0 mm
03:35 AM 44.0°F6.7°C 43.7°F6.5°C 99% Calm Calm -- 26.52 in898.1 mb - 0.00 in0.0 mm 0.00 in0.0 mm
03:40 AM 44.0°F6.7°C 43.7°F6.5°C 99% Calm Calm -- 26.51 in897.7 mb - 0.00 in0.0 mm 0.00 in0.0 mm
03:45 AM 44.0°F6.7°C 43.7°F6.5°C 99% Calm Calm -- 26.51 in897.7 mb - 0.00 in0.0 mm 0.00 in0.0 mm
03:50 AM 44.0°F6.7°C 43.7°F6.5°C 99% Calm Calm -- 26.52 in898.1 mb - 0.00 in0.0 mm 0.00 in0.0 mm
03:55 AM 44.0°F6.7°C 43.7°F6.5°C 99% Calm Calm -- 26.51 in897.7 mb - 0.00 in0.0 mm 0.00 in0.0 mm
04:00 AM 44.0°F6.7°C 43.7°F6.5°C 99% Calm Calm -- 26.51 in897.7 mb - 0.00 in0.0 mm 0.00 in0.0 mm
04:10 AM 44.0°F6.7°C 43.7°F6.5°C 99% Calm Calm -- 26.51 in897.7 mb - 0.00 in0.0 mm 0.00 in0.0 mm
04:15 AM 44.0°F6.7°C 43.7°F6.5°C 99% Calm Calm -- 26.51 in897.7 mb - 0.00 in0.0 mm 0.00 in0.0 mm
04:20 AM 44.0°F6.7°C 43.7°F6.5°C 99% Calm Calm -- 26.52 in898.1 mb - 0.00 in0.0 mm 0.00 in0.0 mm
04:25 AM 44.0°F6.7°C 43.7°F6.5°C 99% Calm Calm -- 26.50 in897.4 mb - 0.00 in0.0 mm 0.00 in0.0 mm
04:30 AM 44.0°F6.7°C 43.7°F6.5°C 99% Calm Calm -- 26.51 in897.7 mb - 0.00 in0.0 mm 0.00 in0.0 mm
04:35 AM 44.0°F6.7°C 43.7°F6.5°C 99% Calm Calm -- 26.52 in898.1 mb - 0.00 in0.0 mm 0.00 in0.0 mm
04:40 AM 44.0°F6.7°C 43.7°F6.5°C 99% Calm Calm -- 26.51 in897.7 mb - 0.00 in0.0 mm 0.00 in0.0 mm
04:45 AM 44.0°F6.7°C 43.7°F6.5°C 99% Calm Calm -- 26.52 in898.1 mb - 0.00 in0.0 mm 0.00 in0.0 mm
04:50 AM 44.0°F6.7°C 43.7°F6.5°C 99% Calm Calm -- 26.52 in898.1 mb - 0.00 in0.0 mm 0.00 in0.0 mm
04:55 AM 44.0°F6.7°C 43.7°F6.5°C 99% Calm Calm -- 26.51 in897.7 mb - 0.00 in0.0 mm 0.00 in0.0 mm
05:00 AM 44.0°F6.7°C 43.7°F6.5°C 99% Calm Calm -- 26.50 in897.4 mb - 0.00 in0.0 mm 0.00 in0.0 mm
05:10 AM 44.0°F6.7°C 43.7°F6.5°C 99% Calm Calm -- 26.51 in897.7 mb - 0.00 in0.0 mm 0.00 in0.0 mm
05:15 AM 44.0°F6.7°C 43.7°F6.5°C 99% Calm Calm -- 26.51 in897.7 mb - 0.00 in0.0 mm 0.00 in0.0 mm
05:20 AM 44.0°F6.7°C 43.7°F6.5°C 99% Calm Calm -- 26.51 in897.7 mb - 0.00 in0.0 mm 0.00 in0.0 mm
05:25 AM 43.0°F6.1°C 42.7°F5.9°C 99% Calm Calm -- 26.51 in897.7 mb - 0.00 in0.0 mm 0.00 in0.0 mm
05:30 AM 43.0°F6.1°C 42.7°F5.9°C 99% Calm Calm -- 26.51 in897.7 mb - 0.00 in0.0 mm 0.00 in0.0 mm
05:35 AM 43.0°F6.1°C 42.7°F5.9°C 99% Calm Calm -- 26.51 in897.7 mb - 0.00 in0.0 mm 0.00 in0.0 mm
05:40 AM 43.0°F6.1°C 42.7°F5.9°C 99% Calm Calm -- 26.51 in897.7 mb - 0.00 in0.0 mm 0.00 in0.0 mm
05:45 AM 43.0°F6.1°C 42.7°F5.9°C 99% Calm Calm -- 26.50 in897.4 mb - 0.00 in0.0 mm 0.00 in0.0 mm
05:50 AM 43.0°F6.1°C 42.7°F5.9°C 99% Calm Calm -- 26.51 in897.7 mb - 0.00 in0.0 mm 0.00 in0.0 mm
05:55 AM 43.0°F6.1°C 42.7°F5.9°C 99% Calm Calm -- 26.51 in897.7 mb - 0.00 in0.0 mm 0.00 in0.0 mm
06:00 AM 43.0°F6.1°C 42.7°F5.9°C 99% Calm Calm -- 26.51 in897.7 mb - 0.00 in0.0 mm 0.00 in0.0 mm
06:10 AM 43.0°F6.1°C 42.7°F5.9°C 99% Calm Calm -- 26.50 in897.4 mb - 0.00 in0.0 mm 0.00 in0.0 mm
06:15 AM 43.0°F6.1°C 42.7°F5.9°C 99% Calm Calm -- 26.50 in897.4 mb - 0.00 in0.0 mm 0.00 in0.0 mm
06:20 AM 44.0°F6.7°C 43.7°F6.5°C 99% Calm Calm -- 26.50 in897.4 mb - 0.00 in0.0 mm 0.00 in0.0 mm
06:25 AM 44.0°F6.7°C 43.7°F6.5°C 99% Calm Calm -- 26.51 in897.7 mb - 0.00 in0.0 mm 0.00 in0.0 mm
06:30 AM 44.0°F6.7°C 43.7°F6.5°C 99% Calm Calm -- 26.50 in897.4 mb - 0.00 in0.0 mm 0.00 in0.0 mm
06:35 AM 44.0°F6.7°C 43.7°F6.5°C 99% Calm Calm -- 26.50 in897.4 mb - 0.00 in0.0 mm 0.00 in0.0 mm
06:40 AM 44.0°F6.7°C 43.7°F6.5°C 99% Calm Calm -- 26.51 in897.7 mb - 0.00 in0.0 mm 0.00 in0.0 mm
06:45 AM 44.0°F6.7°C 43.7°F6.5°C 99% Calm Calm -- 26.49 in897.1 mb - 0.00 in0.0 mm 0.00 in0.0 mm
06:50 AM 44.0°F6.7°C 43.7°F6.5°C 99% Calm Calm -- 26.51 in897.7 mb - 0.00 in0.0 mm 0.00 in0.0 mm
06:55 AM 44.0°F6.7°C 43.7°F6.5°C 99% Calm Calm -- 26.50 in897.4 mb - 0.00 in0.0 mm 0.00 in0.0 mm
07:00 AM 44.0°F6.7°C 43.7°F6.5°C 99% Calm Calm -- 26.49 in897.1 mb - 0.00 in0.0 mm 0.00 in0.0 mm
07:10 AM 44.0°F6.7°C 43.7°F6.5°C 99% Calm Calm -- 26.50 in897.4 mb - 0.00 in0.0 mm 0.00 in0.0 mm
07:15 AM 44.0°F6.7°C 43.7°F6.5°C 99% Calm Calm -- 26.50 in897.4 mb - 0.00 in0.0 mm 0.00 in0.0 mm
07:20 AM 44.0°F6.7°C 43.7°F6.5°C 99% Calm Calm -- 26.50 in897.4 mb - 0.00 in0.0 mm 0.00 in0.0 mm
07:25 AM 44.0°F6.7°C 43.7°F6.5°C 99% Calm Calm -- 26.50 in897.4 mb - 0.00 in0.0 mm 0.00 in0.0 mm
07:30 AM 44.0°F6.7°C 43.7°F6.5°C 99% Calm Calm -- 26.50 in897.4 mb - 0.00 in0.0 mm 0.00 in0.0 mm
07:35 AM 44.0°F6.7°C 43.7°F6.5°C 99% Calm Calm -- 26.51 in897.7 mb - 0.00 in0.0 mm 0.00 in0.0 mm
07:40 AM 44.0°F6.7°C 43.7°F6.5°C 99% Calm Calm -- 26.50 in897.4 mb - 0.00 in0.0 mm 0.00 in0.0 mm
07:45 AM 44.0°F6.7°C 43.7°F6.5°C 99% Calm Calm -- 26.50 in897.4 mb - 0.00 in0.0 mm 0.00 in0.0 mm
07:50 AM 44.0°F6.7°C 43.7°F6.5°C 99% Calm Calm -- 26.50 in897.4 mb - 0.00 in0.0 mm 0.00 in0.0 mm
07:55 AM 44.0°F6.7°C 43.7°F6.5°C 99% Calm Calm -- 26.51 in897.7 mb - 0.00 in0.0 mm 0.00 in0.0 mm
08:00 AM 44.0°F6.7°C 43.7°F6.5°C 99% Calm Calm -- 26.50 in897.4 mb - 0.00 in0.0 mm 0.00 in0.0 mm
08:10 AM 44.0°F6.7°C 43.7°F6.5°C 99% Calm Calm 1.2 mph1.9 kmh 26.51 in897.7 mb - 0.00 in0.0 mm 0.00 in0.0 mm
08:15 AM 44.0°F6.7°C 43.7°F6.5°C 99% Calm Calm -- 26.51 in897.7 mb - 0.00 in0.0 mm 0.00 in0.0 mm
08:20 AM 44.0°F6.7°C 43.7°F6.5°C 99% Calm Calm -- 26.51 in897.7 mb - 0.00 in0.0 mm 0.00 in0.0 mm
08:25 AM 44.0°F6.7°C 43.7°F6.5°C 99% Calm Calm 1.2 mph1.9 kmh 26.51 in897.7 mb - 0.00 in0.0 mm 0.00 in0.0 mm
08:30 AM 44.0°F6.7°C 43.7°F6.5°C 99% Calm Calm -- 26.51 in897.7 mb - 0.00 in0.0 mm 0.00 in0.0 mm
08:35 AM 44.0°F6.7°C 43.7°F6.5°C 99% Calm Calm -- 26.51 in897.7 mb - 0.00 in0.0 mm 0.00 in0.0 mm
08:40 AM 44.0°F6.7°C 43.7°F6.5°C 99% Calm Calm -- 26.51 in897.7 mb - 0.00 in0.0 mm 0.00 in0.0 mm
08:45 AM 44.0°F6.7°C 43.7°F6.5°C 99% Calm Calm -- 26.51 in897.7 mb - 0.00 in0.0 mm 0.00 in0.0 mm
08:50 AM 44.0°F6.7°C 43.7°F6.5°C 99% Calm Calm -- 26.51 in897.7 mb - 0.00 in0.0 mm 0.00 in0.0 mm
08:55 AM 44.0°F6.7°C 43.7°F6.5°C 99% Calm Calm -- 26.52 in898.1 mb - 0.00 in0.0 mm 0.00 in0.0 mm
09:00 AM 44.0°F6.7°C 43.7°F6.5°C 99% Calm Calm -- 26.50 in897.4 mb - 0.00 in0.0 mm 0.00 in0.0 mm
09:10 AM 44.0°F6.7°C 43.7°F6.5°C 99% Calm Calm 1.2 mph1.9 kmh 26.51 in897.7 mb - 0.00 in0.0 mm 0.00 in0.0 mm
09:15 AM 44.0°F6.7°C 43.7°F6.5°C 99% Calm Calm -- 26.52 in898.1 mb - 0.00 in0.0 mm 0.00 in0.0 mm
09:20 AM 44.0°F6.7°C 43.7°F6.5°C 99% Calm Calm -- 26.52 in898.1 mb - 0.00 in0.0 mm 0.00 in0.0 mm
09:25 AM 44.0°F6.7°C 43.7°F6.5°C 99% Calm Calm -- 26.52 in898.1 mb - 0.00 in0.0 mm 0.00 in0.0 mm
09:30 AM 44.0°F6.7°C 43.7°F6.5°C 99% Calm Calm 1.2 mph1.9 kmh 26.51 in897.7 mb - 0.00 in0.0 mm 0.00 in0.0 mm
09:35 AM 44.7°F7.1°C 44.4°F6.9°C 99% Calm Calm 1.2 mph1.9 kmh 26.52 in898.1 mb - 0.00 in0.0 mm 0.00 in0.0 mm
09:40 AM 45.0°F7.2°C 44.7°F7.1°C 99% Calm Calm 1.2 mph1.9 kmh 26.52 in898.1 mb - 0.00 in0.0 mm 0.00 in0.0 mm
09:45 AM 45.0°F7.2°C 44.7°F7.1°C 99% Calm Calm 1.2 mph1.9 kmh 26.52 in898.1 mb - 0.00 in0.0 mm 0.00 in0.0 mm
09:50 AM 44.0°F6.7°C 43.7°F6.5°C 99% 1.2 mph NNW1.9 kmh NNW 1.2 mph1.9 kmh 26.52 in898.1 mb - 0.00 in0.0 mm 0.00 in0.0 mm
09:55 AM 45.0°F7.2°C 44.7°F7.1°C 99% Calm Calm 1.2 mph1.9 kmh 26.51 in897.7 mb - 0.00 in0.0 mm 0.00 in0.0 mm
10:00 AM 45.0°F7.2°C 44.7°F7.1°C 99% Calm Calm 1.2 mph1.9 kmh 26.51 in897.7 mb - 0.00 in0.0 mm 0.00 in0.0 mm
10:10 AM 45.0°F7.2°C 44.7°F7.1°C 99% Calm Calm 1.2 mph1.9 kmh 26.51 in897.7 mb - 0.00 in0.0 mm 0.00 in0.0 mm
10:15 AM 45.0°F7.2°C 44.7°F7.1°C 99% Calm Calm -- 26.51 in897.7 mb - 0.00 in0.0 mm 0.00 in0.0 mm
10:20 AM 45.0°F7.2°C 44.7°F7.1°C 99% Calm Calm 1.2 mph1.9 kmh 26.50 in897.4 mb - 0.00 in0.0 mm 0.00 in0.0 mm
10:25 AM 45.0°F7.2°C 44.7°F7.1°C 99% Calm Calm 1.2 mph1.9 kmh 26.50 in897.4 mb - 0.00 in0.0 mm 0.00 in0.0 mm
10:30 AM 44.0°F6.7°C 43.7°F6.5°C 99% Calm Calm 1.2 mph1.9 kmh 26.51 in897.7 mb - 0.00 in0.0 mm 0.00 in0.0 mm
10:35 AM 44.0°F6.7°C 43.7°F6.5°C 99% Calm Calm 1.2 mph1.9 kmh 26.50 in897.4 mb - 0.00 in0.0 mm 0.00 in0.0 mm
10:40 AM 45.0°F7.2°C 44.7°F7.1°C 99% Calm Calm 1.2 mph1.9 kmh 26.50 in897.4 mb - 0.00 in0.0 mm 0.00 in0.0 mm
10:45 AM 45.0°F7.2°C 44.7°F7.1°C 99% Calm Calm 1.2 mph1.9 kmh 26.50 in897.4 mb - 0.00 in0.0 mm 0.00 in0.0 mm
10:50 AM 44.0°F6.7°C 43.5°F6.4°C 98% Calm Calm 1.2 mph1.9 kmh 26.50 in897.4 mb - 0.00 in0.0 mm 0.00 in0.0 mm
10:55 AM 45.0°F7.2°C 44.5°F6.9°C 98% Calm Calm -- 26.50 in897.4 mb - 0.00 in0.0 mm 0.00 in0.0 mm
11:00 AM 45.0°F7.2°C 44.5°F6.9°C 98% Calm Calm -- 26.50 in897.4 mb - 0.00 in0.0 mm 0.00 in0.0 mm
11:10 AM 45.0°F7.2°C 44.5°F6.9°C 98% Calm Calm -- 26.50 in897.4 mb - 0.00 in0.0 mm 0.00 in0.0 mm
11:15 AM 45.0°F7.2°C 44.5°F6.9°C 98% Calm Calm 2.3 mph3.7 kmh 26.49 in897.1 mb - 0.00 in0.0 mm 0.00 in0.0 mm
11:20 AM 45.0°F7.2°C 44.2°F6.8°C 97% Calm Calm 2.3 mph3.7 kmh 26.49 in897.1 mb - 0.00 in0.0 mm 0.00 in0.0 mm
11:25 AM 45.0°F7.2°C 44.2°F6.8°C 97% Calm Calm 1.2 mph1.9 kmh 26.49 in897.1 mb - 0.00 in0.0 mm 0.00 in0.0 mm
11:30 AM 45.0°F7.2°C 44.2°F6.8°C 97% Calm Calm 2.3 mph3.7 kmh 26.49 in897.1 mb - 0.00 in0.0 mm 0.00 in0.0 mm
11:35 AM 45.0°F7.2°C 44.2°F6.8°C 97% 1.2 mph NW1.9 kmh NW 2.3 mph3.7 kmh 26.49 in897.1 mb - 0.00 in0.0 mm 0.00 in0.0 mm
11:40 AM 45.0°F7.2°C 43.9°F6.6°C 96% Calm Calm 1.2 mph1.9 kmh 26.49 in897.1 mb - 0.00 in0.0 mm 0.00 in0.0 mm
11:45 AM 45.0°F7.2°C 43.9°F6.6°C 96% Calm Calm 1.2 mph1.9 kmh 26.49 in897.1 mb - 0.00 in0.0 mm 0.00 in0.0 mm
11:50 AM 46.0°F7.8°C 44.6°F7.0°C 95% Calm Calm 1.2 mph1.9 kmh 26.48 in896.7 mb - 0.00 in0.0 mm 0.00 in0.0 mm
11:55 AM 46.0°F7.8°C 44.6°F7.0°C 95% Calm Calm -- 26.49 in897.1 mb - 0.00 in0.0 mm 0.00 in0.0 mm
12:00 PM 46.0°F7.8°C 44.9°F7.2°C 96% Calm Calm -- 26.49 in897.1 mb - 0.00 in0.0 mm 0.00 in0.0 mm
12:10 PM 46.0°F7.8°C 44.4°F6.9°C 94% Calm Calm 1.2 mph1.9 kmh 26.48 in896.7 mb - 0.00 in0.0 mm 0.00 in0.0 mm
12:15 PM 46.0°F7.8°C 44.4°F6.9°C 94% Calm Calm 1.2 mph1.9 kmh 26.48 in896.7 mb - 0.00 in0.0 mm 0.00 in0.0 mm
12:20 PM 46.0°F7.8°C 44.1°F6.7°C 93% Calm Calm 1.2 mph1.9 kmh 26.48 in896.7 mb - 0.00 in0.0 mm 0.00 in0.0 mm
12:25 PM 46.0°F7.8°C 44.1°F6.7°C 93% 1.2 mph NW1.9 kmh NW 2.3 mph3.7 kmh 26.47 in896.4 mb - 0.00 in0.0 mm 0.00 in0.0 mm
12:30 PM 46.0°F7.8°C 44.1°F6.7°C 93% Calm Calm 1.2 mph1.9 kmh 26.47 in896.4 mb - 0.00 in0.0 mm 0.00 in0.0 mm
12:35 PM 46.0°F7.8°C 44.1°F6.7°C 93% Calm Calm 1.2 mph1.9 kmh 26.46 in896.0 mb - 0.00 in0.0 mm 0.00 in0.0 mm
12:40 PM 46.0°F7.8°C 43.8°F6.6°C 92% Calm Calm 1.2 mph1.9 kmh 26.47 in896.4 mb - 0.00 in0.0 mm 0.00 in0.0 mm
12:45 PM 46.0°F7.8°C 43.8°F6.6°C 92% Calm Calm 1.2 mph1.9 kmh 26.46 in896.0 mb - 0.00 in0.0 mm 0.00 in0.0 mm
12:50 PM 46.0°F7.8°C 43.8°F6.6°C 92% 1.2 mph N1.9 kmh N 1.2 mph1.9 kmh 26.45 in895.7 mb - 0.00 in0.0 mm 0.00 in0.0 mm
12:55 PM 47.0°F8.3°C 44.8°F7.1°C 92% 1.2 mph NNW1.9 kmh NNW 2.3 mph3.7 kmh 26.46 in896.0 mb - 0.00 in0.0 mm 0.00 in0.0 mm
01:00 PM 46.0°F7.8°C 44.4°F6.9°C 94% Calm Calm 2.3 mph3.7 kmh 26.46 in896.0 mb - 0.00 in0.0 mm 0.00 in0.0 mm
01:10 PM 46.0°F7.8°C 44.1°F6.7°C 93% Calm Calm 1.2 mph1.9 kmh 26.45 in895.7 mb - 0.00 in0.0 mm 0.00 in0.0 mm
01:15 PM 46.0°F7.8°C 44.4°F6.9°C 94% Calm Calm 2.3 mph3.7 kmh 26.45 in895.7 mb - 0.00 in0.0 mm 0.00 in0.0 mm
01:20 PM 46.0°F7.8°C 44.4°F6.9°C 94% Calm Calm 2.3 mph3.7 kmh 26.45 in895.7 mb - 0.00 in0.0 mm 0.00 in0.0 mm
01:25 PM 46.0°F7.8°C 44.4°F6.9°C 94% Calm Calm 2.3 mph3.7 kmh 26.45 in895.7 mb - 0.00 in0.0 mm 0.00 in0.0 mm
01:30 PM 46.0°F7.8°C 44.4°F6.9°C 94% Calm Calm 2.3 mph3.7 kmh 26.45 in895.7 mb - 0.00 in0.0 mm 0.00 in0.0 mm
01:35 PM 46.0°F7.8°C 44.4°F6.9°C 94% Calm Calm 1.2 mph1.9 kmh 26.46 in896.0 mb - 0.00 in0.0 mm 0.00 in0.0 mm
01:40 PM 46.0°F7.8°C 44.1°F6.7°C 93% 1.2 mph NW1.9 kmh NW 1.2 mph1.9 kmh 26.44 in895.4 mb - 0.00 in0.0 mm 0.00 in0.0 mm
01:45 PM 46.0°F7.8°C 44.1°F6.7°C 93% 1.2 mph NNW1.9 kmh NNW 2.3 mph3.7 kmh 26.44 in895.4 mb - 0.00 in0.0 mm 0.00 in0.0 mm
01:50 PM 46.0°F7.8°C 43.8°F6.6°C 92% 1.2 mph NNW1.9 kmh NNW 1.2 mph1.9 kmh 26.44 in895.4 mb - 0.00 in0.0 mm 0.00 in0.0 mm
01:55 PM 46.0°F7.8°C 44.1°F6.7°C 93% 1.2 mph N1.9 kmh N 1.2 mph1.9 kmh 26.45 in895.7 mb - 0.00 in0.0 mm 0.00 in0.0 mm
02:00 PM 46.0°F7.8°C 44.1°F6.7°C 93% Calm Calm 1.2 mph1.9 kmh 26.44 in895.4 mb - 0.00 in0.0 mm 0.00 in0.0 mm
02:10 PM 46.0°F7.8°C 43.8°F6.6°C 92% Calm Calm 1.2 mph1.9 kmh 26.44 in895.4 mb - 0.00 in0.0 mm 0.00 in0.0 mm
02:15 PM 46.0°F7.8°C 44.1°F6.7°C 93% 1.2 mph NW1.9 kmh NW 2.3 mph3.7 kmh 26.44 in895.4 mb - 0.00 in0.0 mm 0.00 in0.0 mm
02:20 PM 46.0°F7.8°C 44.1°F6.7°C 93% Calm Calm 1.2 mph1.9 kmh 26.44 in895.4 mb - 0.00 in0.0 mm 0.00 in0.0 mm
02:25 PM 46.0°F7.8°C 43.8°F6.6°C 92% Calm Calm 1.2 mph1.9 kmh 26.44 in895.4 mb - 0.00 in0.0 mm 0.00 in0.0 mm
02:30 PM 46.0°F7.8°C 43.8°F6.6°C 92% Calm Calm 1.2 mph1.9 kmh 26.44 in895.4 mb - 0.00 in0.0 mm 0.00 in0.0 mm
02:35 PM 46.0°F7.8°C 43.8°F6.6°C 92% Calm Calm 2.3 mph3.7 kmh 26.43 in895.0 mb - 0.00 in0.0 mm 0.00 in0.0 mm
02:40 PM 46.0°F7.8°C 44.1°F6.7°C 93% Calm Calm 1.2 mph1.9 kmh 26.44 in895.4 mb - 0.00 in0.0 mm 0.00 in0.0 mm
02:45 PM 46.0°F7.8°C 43.8°F6.6°C 92% Calm Calm 1.2 mph1.9 kmh 26.43 in895.0 mb - 0.00 in0.0 mm 0.00 in0.0 mm
02:50 PM 46.0°F7.8°C 44.1°F6.7°C 93% 1.2 mph N1.9 kmh N 2.3 mph3.7 kmh 26.44 in895.4 mb - 0.00 in0.0 mm 0.00 in0.0 mm
02:55 PM 46.0°F7.8°C 44.4°F6.9°C 94% 1.2 mph NW1.9 kmh NW 1.2 mph1.9 kmh 26.43 in895.0 mb - 0.00 in0.0 mm 0.00 in0.0 mm
03:00 PM 46.0°F7.8°C 44.1°F6.7°C 93% Calm Calm -- 26.44 in895.4 mb - 0.00 in0.0 mm 0.00 in0.0 mm
03:10 PM 46.0°F7.8°C 44.4°F6.9°C 94% 1.2 mph NW1.9 kmh NW 2.3 mph3.7 kmh 26.43 in895.0 mb - 0.00 in0.0 mm 0.00 in0.0 mm
03:15 PM 45.6°F7.6°C 44.0°F6.7°C 94% 1.2 mph NW1.9 kmh NW 2.3 mph3.7 kmh 26.43 in895.0 mb - 0.00 in0.0 mm 0.00 in0.0 mm
03:20 PM 45.0°F7.2°C 43.4°F6.3°C 94% Calm Calm 1.2 mph1.9 kmh 26.43 in895.0 mb - 0.00 in0.0 mm 0.00 in0.0 mm
03:25 PM 45.0°F7.2°C 43.4°F6.3°C 94% Calm Calm 1.2 mph1.9 kmh 26.42 in894.7 mb - 0.00 in0.0 mm 0.00 in0.0 mm
03:30 PM 45.0°F7.2°C 43.4°F6.3°C 94% Calm Calm 1.2 mph1.9 kmh 26.43 in895.0 mb - 0.00 in0.0 mm 0.00 in0.0 mm
03:35 PM 45.0°F7.2°C 43.4°F6.3°C 94% Calm Calm 1.2 mph1.9 kmh 26.43 in895.0 mb - 0.00 in0.0 mm 0.00 in0.0 mm
03:40 PM 45.0°F7.2°C 43.4°F6.3°C 94% Calm Calm 1.2 mph1.9 kmh 26.42 in894.7 mb - 0.00 in0.0 mm 0.00 in0.0 mm
03:45 PM 45.0°F7.2°C 43.4°F6.3°C 94% 1.2 mph N1.9 kmh N 1.2 mph1.9 kmh 26.42 in894.7 mb - 0.00 in0.0 mm 0.00 in0.0 mm
03:50 PM 45.0°F7.2°C 43.4°F6.3°C 94% Calm Calm 1.2 mph1.9 kmh 26.43 in895.0 mb - 0.00 in0.0 mm 0.00 in0.0 mm
03:55 PM 45.0°F7.2°C 43.7°F6.5°C 95% Calm Calm 2.3 mph3.7 kmh 26.42 in894.7 mb - 0.00 in0.0 mm 0.00 in0.0 mm
04:00 PM 45.0°F7.2°C 43.7°F6.5°C 95% 1.2 mph N1.9 kmh N 2.3 mph3.7 kmh 26.42 in894.7 mb - 0.00 in0.0 mm 0.00 in0.0 mm
04:10 PM 45.0°F7.2°C 43.4°F6.3°C 94% Calm Calm 1.2 mph1.9 kmh 26.42 in894.7 mb - 0.00 in0.0 mm 0.00 in0.0 mm
04:15 PM 45.0°F7.2°C 43.7°F6.5°C 95% Calm Calm 1.2 mph1.9 kmh 26.42 in894.7 mb - 0.00 in0.0 mm 0.00 in0.0 mm
04:20 PM 45.0°F7.2°C 43.4°F6.3°C 94% Calm Calm 2.3 mph3.7 kmh 26.42 in894.7 mb - 0.00 in0.0 mm 0.00 in0.0 mm
04:25 PM 45.0°F7.2°C 43.4°F6.3°C 94% Calm Calm 1.2 mph1.9 kmh 26.42 in894.7 mb - 0.00 in0.0 mm 0.00 in0.0 mm
04:30 PM 45.0°F7.2°C 43.4°F6.3°C 94% Calm Calm 1.2 mph1.9 kmh 26.42 in894.7 mb - 0.00 in0.0 mm 0.00 in0.0 mm
04:35 PM 45.0°F7.2°C 43.7°F6.5°C 95% Calm Calm 1.2 mph1.9 kmh 26.42 in894.7 mb - 0.00 in0.0 mm 0.00 in0.0 mm
04:40 PM 45.0°F7.2°C 43.7°F6.5°C 95% Calm Calm 1.2 mph1.9 kmh 26.42 in894.7 mb - 0.00 in0.0 mm 0.00 in0.0 mm
04:45 PM 45.0°F7.2°C 43.7°F6.5°C 95% Calm Calm -- 26.42 in894.7 mb - 0.00 in0.0 mm 0.00 in0.0 mm
04:50 PM 45.0°F7.2°C 43.7°F6.5°C 95% Calm Calm 1.2 mph1.9 kmh 26.42 in894.7 mb - 0.00 in0.0 mm 0.00 in0.0 mm
04:55 PM 45.0°F7.2°C 43.7°F6.5°C 95% Calm Calm 1.2 mph1.9 kmh 26.42 in894.7 mb - 0.00 in0.0 mm 0.00 in0.0 mm
05:00 PM 45.0°F7.2°C 43.7°F6.5°C 95% Calm Calm 1.2 mph1.9 kmh 26.42 in894.7 mb - 0.00 in0.0 mm 0.00 in0.0 mm
05:10 PM 44.0°F6.7°C 42.7°F5.9°C 95% Calm Calm 2.3 mph3.7 kmh 26.41 in894.3 mb - 0.00 in0.0 mm 0.00 in0.0 mm
05:15 PM 44.0°F6.7°C 42.7°F5.9°C 95% Calm Calm 2.3 mph3.7 kmh 26.42 in894.7 mb - 0.00 in0.0 mm 0.00 in0.0 mm
05:20 PM 45.0°F7.2°C 43.7°F6.5°C 95% 1.2 mph N1.9 kmh N 2.3 mph3.7 kmh 26.42 in894.7 mb - 0.00 in0.0 mm 0.00 in0.0 mm
05:25 PM 44.0°F6.7°C 42.7°F5.9°C 95% Calm Calm 1.2 mph1.9 kmh 26.41 in894.3 mb - 0.00 in0.0 mm 0.00 in0.0 mm
05:30 PM 44.0°F6.7°C 42.9°F6.1°C 96% Calm Calm 1.2 mph1.9 kmh 26.41 in894.3 mb - 0.01 in0.3 mm 0.01 in0.3 mm
05:35 PM 44.0°F6.7°C 42.9°F6.1°C 96% Calm Calm -- 26.41 in894.3 mb - 0.01 in0.3 mm 0.01 in0.3 mm
05:40 PM 44.0°F6.7°C 42.9°F6.1°C 96% Calm Calm -- 26.42 in894.7 mb - 0.01 in0.3 mm 0.01 in0.3 mm
05:45 PM 44.0°F6.7°C 43.2°F6.2°C 97% Calm Calm 1.2 mph1.9 kmh 26.41 in894.3 mb - 0.01 in0.3 mm 0.01 in0.3 mm
05:50 PM 44.0°F6.7°C 43.2°F6.2°C 97% Calm Calm 1.2 mph1.9 kmh 26.41 in894.3 mb - 0.01 in0.3 mm 0.01 in0.3 mm
05:55 PM 44.0°F6.7°C 43.2°F6.2°C 97% Calm Calm -- 26.40 in894.0 mb - 0.01 in0.3 mm 0.01 in0.3 mm
06:00 PM 44.0°F6.7°C 43.2°F6.2°C 97% Calm Calm 1.2 mph1.9 kmh 26.41 in894.3 mb - 0.01 in0.3 mm 0.01 in0.3 mm
06:10 PM 44.0°F6.7°C 43.2°F6.2°C 97% Calm Calm 1.2 mph1.9 kmh 26.41 in894.3 mb - 0.02 in0.5 mm 0.02 in0.5 mm
06:15 PM 44.0°F6.7°C 43.2°F6.2°C 97% Calm Calm 1.2 mph1.9 kmh 26.41 in894.3 mb - 0.02 in0.5 mm 0.02 in0.5 mm
06:20 PM 44.0°F6.7°C 43.2°F6.2°C 97% 1.2 mph N1.9 kmh N 1.2 mph1.9 kmh 26.41 in894.3 mb - 0.02 in0.5 mm 0.02 in0.5 mm
06:25 PM 44.0°F6.7°C 42.9°F6.1°C 96% Calm Calm 2.3 mph3.7 kmh 26.41 in894.3 mb - 0.02 in0.5 mm 0.02 in0.5 mm
06:30 PM 44.0°F6.7°C 42.9°F6.1°C 96% 1.2 mph N1.9 kmh N 2.3 mph3.7 kmh 26.42 in894.7 mb - 0.01 in0.3 mm 0.02 in0.5 mm
06:35 PM 44.0°F6.7°C 42.9°F6.1°C 96% Calm Calm 2.3 mph3.7 kmh 26.41 in894.3 mb - 0.01 in0.3 mm 0.02 in0.5 mm
06:40 PM 44.0°F6.7°C 42.7°F5.9°C 95% Calm Calm 2.3 mph3.7 kmh 26.42 in894.7 mb - 0.01 in0.3 mm 0.02 in0.5 mm
06:45 PM 44.0°F6.7°C 42.7°F5.9°C 95% Calm Calm 2.3 mph3.7 kmh 26.41 in894.3 mb - 0.01 in0.3 mm 0.02 in0.5 mm
06:50 PM 44.0°F6.7°C 42.7°F5.9°C 95% Calm Calm 1.2 mph1.9 kmh 26.41 in894.3 mb - 0.01 in0.3 mm 0.02 in0.5 mm
06:55 PM 44.0°F6.7°C 42.7°F5.9°C 95% Calm Calm 1.2 mph1.9 kmh 26.41 in894.3 mb - 0.01 in0.3 mm 0.02 in0.5 mm
07:00 PM 44.0°F6.7°C 42.7°F5.9°C 95% Calm Calm 1.2 mph1.9 kmh 26.41 in894.3 mb - 0.01 in0.3 mm 0.02 in0.5 mm
07:10 PM 44.0°F6.7°C 42.7°F5.9°C 95% Calm Calm -- 26.41 in894.3 mb - 0.00 in0.0 mm 0.02 in0.5 mm
07:15 PM 44.0°F6.7°C 42.7°F5.9°C 95% Calm Calm 1.2 mph1.9 kmh 26.40 in894.0 mb - 0.00 in0.0 mm 0.02 in0.5 mm
07:20 PM 44.0°F6.7°C 42.7°F5.9°C 95% Calm Calm -- 26.41 in894.3 mb - 0.00 in0.0 mm 0.02 in0.5 mm
07:25 PM 44.0°F6.7°C 42.7°F5.9°C 95% Calm Calm -- 26.40 in894.0 mb - 0.00 in0.0 mm 0.02 in0.5 mm
07:30 PM 44.0°F6.7°C 42.7°F5.9°C 95% Calm Calm -- 26.40 in894.0 mb - 0.00 in0.0 mm 0.02 in0.5 mm
07:35 PM 44.0°F6.7°C 42.7°F5.9°C 95% Calm Calm -- 26.40 in894.0 mb - 0.00 in0.0 mm 0.02 in0.5 mm
07:40 PM 44.0°F6.7°C 42.7°F5.9°C 95% Calm Calm -- 26.40 in894.0 mb - 0.00 in0.0 mm 0.02 in0.5 mm
07:45 PM 44.0°F6.7°C 42.9°F6.1°C 96% Calm Calm -- 26.40 in894.0 mb - 0.00 in0.0 mm 0.02 in0.5 mm
07:50 PM 44.0°F6.7°C 42.7°F5.9°C 95% Calm Calm -- 26.39 in893.7 mb - 0.00 in0.0 mm 0.02 in0.5 mm
07:55 PM 44.0°F6.7°C 42.9°F6.1°C 96% Calm Calm -- 26.39 in893.7 mb - 0.00 in0.0 mm 0.02 in0.5 mm
08:00 PM 44.0°F6.7°C 42.9°F6.1°C 96% Calm Calm -- 26.39 in893.7 mb - 0.00 in0.0 mm 0.02 in0.5 mm
08:10 PM 44.0°F6.7°C 42.9°F6.1°C 96% Calm Calm 1.2 mph1.9 kmh 26.39 in893.7 mb - 0.00 in0.0 mm 0.02 in0.5 mm
08:15 PM 44.0°F6.7°C 42.9°F6.1°C 96% Calm Calm -- 26.40 in894.0 mb - 0.00 in0.0 mm 0.02 in0.5 mm
08:20 PM 44.0°F6.7°C 43.2°F6.2°C 97% Calm Calm 1.2 mph1.9 kmh 26.40 in894.0 mb - 0.00 in0.0 mm 0.02 in0.5 mm
08:25 PM 44.0°F6.7°C 43.2°F6.2°C 97% Calm Calm -- 26.40 in894.0 mb - 0.00 in0.0 mm 0.02 in0.5 mm
08:30 PM 44.0°F6.7°C 43.2°F6.2°C 97% Calm Calm -- 26.39 in893.7 mb - 0.00 in0.0 mm 0.02 in0.5 mm
08:35 PM 44.0°F6.7°C 42.9°F6.1°C 96% Calm Calm 1.2 mph1.9 kmh 26.39 in893.7 mb - 0.00 in0.0 mm 0.02 in0.5 mm
08:40 PM 44.0°F6.7°C 42.9°F6.1°C 96% Calm Calm 1.2 mph1.9 kmh 26.39 in893.7 mb - 0.00 in0.0 mm 0.02 in0.5 mm
08:45 PM 44.0°F6.7°C 42.9°F6.1°C 96% Calm Calm 1.2 mph1.9 kmh 26.39 in893.7 mb - 0.00 in0.0 mm 0.02 in0.5 mm
08:50 PM 44.0°F6.7°C 42.9°F6.1°C 96% Calm Calm 1.2 mph1.9 kmh 26.39 in893.7 mb - 0.00 in0.0 mm 0.02 in0.5 mm
08:55 PM 44.0°F6.7°C 42.9°F6.1°C 96% Calm Calm 1.2 mph1.9 kmh 26.39 in893.7 mb - 0.00 in0.0 mm 0.02 in0.5 mm
09:00 PM 44.0°F6.7°C 42.9°F6.1°C 96% Calm Calm 1.2 mph1.9 kmh 26.39 in893.7 mb - 0.00 in0.0 mm 0.02 in0.5 mm
09:10 PM 44.0°F6.7°C 43.2°F6.2°C 97% 1.2 mph NW1.9 kmh NW 1.2 mph1.9 kmh 26.39 in893.7 mb - 0.00 in0.0 mm 0.02 in0.5 mm
09:15 PM 44.0°F6.7°C 43.2°F6.2°C 97% Calm Calm 1.2 mph1.9 kmh 26.38 in893.3 mb - 0.00 in0.0 mm 0.02 in0.5 mm
09:20 PM 44.0°F6.7°C 43.2°F6.2°C 97% Calm Calm 1.2 mph1.9 kmh 26.39 in893.7 mb - 0.00 in0.0 mm 0.02 in0.5 mm
09:25 PM 43.0°F6.1°C 42.2°F5.7°C 97% Calm Calm -- 26.38 in893.3 mb - 0.00 in0.0 mm 0.02 in0.5 mm
09:30 PM 43.0°F6.1°C 42.2°F5.7°C 97% Calm Calm -- 26.38 in893.3 mb - 0.00 in0.0 mm 0.02 in0.5 mm
09:35 PM 43.0°F6.1°C 42.2°F5.7°C 97% 1.2 mph N1.9 kmh N 2.3 mph3.7 kmh 26.38 in893.3 mb - 0.00 in0.0 mm 0.02 in0.5 mm
09:40 PM 43.0°F6.1°C 42.2°F5.7°C 97% Calm Calm 1.2 mph1.9 kmh 26.38 in893.3 mb - 0.00 in0.0 mm 0.02 in0.5 mm
09:45 PM 43.0°F6.1°C 42.2°F5.7°C 97% Calm Calm -- 26.39 in893.7 mb - 0.00 in0.0 mm 0.02 in0.5 mm
09:50 PM 43.0°F6.1°C 42.2°F5.7°C 97% Calm Calm -- 26.38 in893.3 mb - 0.00 in0.0 mm 0.02 in0.5 mm
09:55 PM 44.0°F6.7°C 43.2°F6.2°C 97% Calm Calm -- 26.38 in893.3 mb - 0.00 in0.0 mm 0.02 in0.5 mm
10:00 PM 44.0°F6.7°C 43.2°F6.2°C 97% Calm Calm -- 26.39 in893.7 mb - 0.00 in0.0 mm 0.02 in0.5 mm
10:10 PM 44.0°F6.7°C 42.9°F6.1°C 96% Calm Calm -- 26.37 in893.0 mb - 0.00 in0.0 mm 0.02 in0.5 mm
10:15 PM 44.0°F6.7°C 42.9°F6.1°C 96% Calm Calm -- 26.37 in893.0 mb - 0.00 in0.0 mm 0.02 in0.5 mm
10:20 PM 44.0°F6.7°C 42.9°F6.1°C 96% Calm Calm -- 26.37 in893.0 mb - 0.00 in0.0 mm 0.02 in0.5 mm
10:25 PM 44.0°F6.7°C 42.9°F6.1°C 96% Calm Calm 1.2 mph1.9 kmh 26.37 in893.0 mb - 0.00 in0.0 mm 0.02 in0.5 mm
10:30 PM 44.0°F6.7°C 43.2°F6.2°C 97% Calm Calm 1.2 mph1.9 kmh 26.37 in893.0 mb - 0.00 in0.0 mm 0.02 in0.5 mm
10:35 PM 44.0°F6.7°C 43.2°F6.2°C 97% Calm Calm 1.2 mph1.9 kmh 26.37 in893.0 mb - 0.00 in0.0 mm 0.02 in0.5 mm
10:40 PM 44.0°F6.7°C 43.2°F6.2°C 97% Calm Calm 1.2 mph1.9 kmh 26.37 in893.0 mb - 0.00 in0.0 mm 0.02 in0.5 mm
10:45 PM 43.9°F6.6°C 43.1°F6.2°C 97% Calm Calm 1.2 mph1.9 kmh 26.37 in893.0 mb - 0.00 in0.0 mm 0.02 in0.5 mm
10:50 PM 43.0°F6.1°C 42.2°F5.7°C 97% Calm Calm 1.2 mph1.9 kmh 26.36 in892.7 mb - 0.00 in0.0 mm 0.02 in0.5 mm
10:55 PM 43.0°F6.1°C 42.2°F5.7°C 97% Calm Calm -- 26.37 in893.0 mb - 0.00 in0.0 mm 0.02 in0.5 mm
11:00 PM 43.0°F6.1°C 42.2°F5.7°C 97% Calm Calm -- 26.37 in893.0 mb - 0.00 in0.0 mm 0.02 in0.5 mm
11:10 PM 43.0°F6.1°C 42.2°F5.7°C 97% Calm Calm -- 26.36 in892.7 mb - 0.00 in0.0 mm 0.02 in0.5 mm
11:15 PM 43.0°F6.1°C 42.2°F5.7°C 97% Calm Calm -- 26.37 in893.0 mb - 0.00 in0.0 mm 0.02 in0.5 mm
11:20 PM 43.0°F6.1°C 42.2°F5.7°C 97% Calm Calm -- 26.36 in892.7 mb - 0.00 in0.0 mm 0.02 in0.5 mm
11:25 PM 43.0°F6.1°C 42.2°F5.7°C 97% Calm Calm -- 26.37 in893.0 mb - 0.00 in0.0 mm 0.02 in0.5 mm
11:30 PM 43.0°F6.1°C 42.2°F5.7°C 97% Calm Calm -- 26.36 in892.7 mb - 0.00 in0.0 mm 0.02 in0.5 mm
11:35 PM 43.0°F6.1°C 42.2°F5.7°C 97% Calm Calm -- 26.37 in893.0 mb - 0.00 in0.0 mm 0.02 in0.5 mm
11:40 PM 43.0°F6.1°C 42.2°F5.7°C 97% Calm Calm -- 26.37 in893.0 mb - 0.00 in0.0 mm 0.02 in0.5 mm
11:45 PM 43.0°F6.1°C 42.2°F5.7°C 97% Calm Calm -- 26.37 in893.0 mb - 0.00 in0.0 mm 0.02 in0.5 mm
11:50 PM 43.0°F6.1°C 42.2°F5.7°C 97% Calm Calm -- 26.37 in893.0 mb - 0.00 in0.0 mm 0.02 in0.5 mm
11:55 PM 43.0°F6.1°C 42.2°F5.7°C 97% Calm Calm -- 26.37 in893.0 mb - 0.00 in0.0 mm 0.02 in0.5 mm